Time;durP1;ratioP1;P1;durP2;ratioP2;P2;SDS_P1;SDS_P2;PMS_P1;PMS_P2;Temp;Humidity;BMP_temperature;BMP_pressure;BME280_temperature;BME280_humidity;BME280_pressure;Samples;Min_cycle;Max_cycle;Signal;HPM_P1;HPM_P2
2024/03/16 00:00:09;;;;;;;42.03;22.98;;;;;;;5.41;83.50;100032.61;1706451;83;27436;-69
2024/03/16 00:02:37;;;;;;;39.88;22.32;;;;;;;5.42;83.42;100032.84;1680874;84;25505;-67
2024/03/16 00:05:04;;;;;;;40.05;22.35;;;;;;;5.41;83.57;100027.25;1685123;84;25647;-67
2024/03/16 00:07:31;;;;;;;42.98;22.85;;;;;;;5.40;83.42;100017.58;1680898;85;25689;-67
2024/03/16 00:09:57;;;;;;;42.13;22.45;;;;;;;5.40;83.45;100025.62;1680767;85;25466;-68
2024/03/16 00:12:24;;;;;;;41.40;22.48;;;;;;;5.40;83.39;100020.27;1680773;85;28151;-69
2024/03/16 00:14:50;;;;;;;41.48;23.90;;;;;;;5.40;83.61;100019.47;1680633;85;25490;-68
2024/03/16 00:17:17;;;;;;;41.77;23.47;;;;;;;5.39;83.71;100016.52;1680741;85;25547;-68
2024/03/16 00:19:47;;;;;;;46.23;23.12;;;;;;;5.40;83.62;100017.58;1684498;84;25945;-74
2024/03/16 00:22:15;;;;;;;81.35;49.40;;;;;;;5.40;84.40;100016.79;1680906;84;25426;-72
2024/03/16 00:24:41;;;;;;;47.40;25.45;;;;;;;5.43;84.15;100018.89;1680866;85;28069;-77
2024/03/16 00:27:08;;;;;;;41.00;23.47;;;;;;;5.43;84.00;100004.95;1680679;85;25605;-72
2024/03/16 00:29:34;;;;;;;90.38;58.10;;;;;;;5.45;84.01;100004.67;1680731;85;25681;-72
2024/03/16 00:32:01;;;;;;;39.08;24.32;;;;;;;5.46;84.56;100001.45;1681955;84;26256;-76
2024/03/16 00:34:27;;;;;;;39.80;21.85;;;;;;;5.46;84.31;99994.73;1685742;85;25646;-73
2024/03/16 00:36:53;;;;;;;38.63;23.92;;;;;;;5.44;84.17;99993.67;1685646;85;27347;-75
2024/03/16 00:39:23;;;;;;;40.95;22.67;;;;;;;5.43;84.67;99987.52;1685558;85;25466;-75
2024/03/16 00:41:48;;;;;;;39.30;22.25;;;;;;;5.41;84.76;99988.34;1685621;85;25683;-76
2024/03/16 00:44:14;;;;;;;39.45;22.05;;;;;;;5.41;84.39;99990.21;1685610;85;25629;-77
2024/03/16 00:46:40;;;;;;;39.98;22.65;;;;;;;5.39;84.47;99981.09;1685812;85;25471;-76
2024/03/16 00:49:06;;;;;;;40.98;22.60;;;;;;;5.39;84.69;99973.61;1685611;85;27339;-76
2024/03/16 00:51:33;;;;;;;40.35;21.97;;;;;;;5.37;84.89;99974.43;1685544;85;25493;-77
2024/03/16 00:53:59;;;;;;;39.85;22.13;;;;;;;5.37;84.68;99975.22;1685634;85;25446;-76
2024/03/16 00:56:26;;;;;;;41.08;22.00;;;;;;;5.37;84.95;99977.91;1684226;85;25910;-77
2024/03/16 00:58:53;;;;;;;45.40;22.85;;;;;;;5.36;84.80;99973.64;1689442;84;25755;-74
2024/03/16 01:01:20;;;;;;;40.43;23.73;;;;;;;5.35;84.97;99969.34;1702960;84;27379;-74
2024/03/16 01:03:46;;;;;;;36.15;21.23;;;;;;;5.34;84.96;99967.73;1702978;84;25612;-74
2024/03/16 01:06:12;;;;;;;36.65;21.02;;;;;;;5.34;84.96;99969.08;1703090;84;25575;-74
2024/03/16 01:08:38;;;;;;;40.50;22.37;;;;;;;5.35;85.00;99969.89;1703134;84;25728;-74
2024/03/16 01:11:05;;;;;;;39.75;21.68;;;;;;;5.34;85.06;99976.33;1703292;84;25575;-74
2024/03/16 01:13:32;;;;;;;38.28;20.97;;;;;;;5.34;85.11;99980.35;1703253;84;27424;-73
2024/03/16 01:15:58;;;;;;;45.23;22.17;;;;;;;5.34;85.08;99974.98;1703149;84;25652;-73
2024/03/16 01:18:24;;;;;;;45.12;22.82;;;;;;;5.34;85.15;99973.09;1703255;84;25396;-73
2024/03/16 01:20:50;;;;;;;40.92;22.55;;;;;;;5.32;85.62;99963.75;1703190;84;26219;-73
2024/03/16 01:23:17;;;;;;;39.95;22.48;;;;;;;5.32;85.25;99961.06;1703220;84;25573;-73
2024/03/16 01:25:44;;;;;;;39.60;22.80;;;;;;;5.30;85.34;99964.03;1703198;84;27417;-72
2024/03/16 01:28:10;;;;;;;39.95;23.02;;;;;;;5.28;85.34;99961.35;1703085;84;25462;-72
2024/03/16 01:30:36;;;;;;;38.95;21.55;;;;;;;5.28;85.32;99969.39;1704022;83;25633;-73
2024/03/16 01:33:03;;;;;;;39.73;22.45;;;;;;;5.26;85.78;99960.32;1751762;81;25683;-73
2024/03/16 01:35:30;;;;;;;40.75;23.50;;;;;;;5.23;85.35;99949.60;1747186;81;25604;-72
2024/03/16 01:37:56;;;;;;;42.23;23.15;;;;;;;5.21;85.73;99950.95;1746985;82;27905;-74
2024/03/16 01:40:25;;;;;;;39.35;22.07;;;;;;;5.20;85.46;99950.70;1746902;82;25711;-73
2024/03/16 01:42:54;;;;;;;41.05;22.00;;;;;;;5.18;85.27;99947.52;1747102;82;29478;-73
2024/03/16 01:45:21;;;;;;;41.70;22.05;;;;;;;5.16;85.18;99944.28;1747063;81;25614;-72
2024/03/16 01:47:52;;;;;;;40.05;23.05;;;;;;;5.14;85.44;99943.77;1747008;81;25400;-73
2024/03/16 01:50:22;;;;;;;45.17;24.00;;;;;;;5.11;85.75;99938.97;1746973;81;27340;-73
2024/03/16 01:52:49;;;;;;;42.38;23.85;;;;;;;5.09;85.79;99942.48;1746900;81;25555;-73
2024/03/16 01:55:17;;;;;;;38.67;21.62;;;;;;;5.08;86.18;99952.41;1746972;82;25463;-74
2024/03/16 01:57:44;;;;;;;42.10;22.82;;;;;;;5.05;86.06;99946.27;1746931;81;25619;-74
2024/03/16 02:00:11;;;;;;;40.75;21.93;;;;;;;5.02;86.20;99939.59;1746979;81;25562;-74
2024/03/16 02:02:39;;;;;;;45.17;23.15;;;;;;;4.99;86.75;99944.17;1746956;81;28003;-72
2024/03/16 02:05:07;;;;;;;43.38;22.77;;;;;;;4.96;86.54;99939.91;1746853;81;25646;-72
2024/03/16 02:07:37;;;;;;;42.77;23.17;;;;;;;4.94;86.84;99936.17;1747233;82;25578;-73
2024/03/16 02:10:08;;;;;;;42.45;22.70;;;;;;;4.93;86.63;99935.10;1746872;82;26316;-73
2024/03/16 02:12:34;;;;;;;42.05;21.95;;;;;;;4.90;86.96;99937.00;1747144;81;25415;-73
2024/03/16 02:15:02;;;;;;;39.18;23.30;;;;;;;4.89;87.21;99941.56;1746937;81;27332;-73
2024/03/16 02:17:28;;;;;;;39.35;21.82;;;;;;;4.88;87.48;99945.86;1746877;81;25688;-73
2024/03/16 02:19:55;;;;;;;42.48;23.15;;;;;;;4.86;87.56;99944.25;1746919;81;25577;-73
2024/03/16 02:22:23;;;;;;;42.83;23.12;;;;;;;4.86;87.45;99950.16;1746916;81;26162;-74
2024/03/16 02:24:49;;;;;;;39.92;23.15;;;;;;;4.88;87.74;99937.83;1747064;81;25407;-75
2024/03/16 02:27:16;;;;;;;45.40;23.75;;;;;;;4.87;87.54;99933.02;1747022;81;27879;-74
2024/03/16 02:29:43;;;;;;;42.20;22.62;;;;;;;4.88;87.98;99933.25;1746934;82;25474;-74
2024/03/16 02:32:10;;;;;;;38.80;22.35;;;;;;;4.90;87.86;99936.45;1746822;81;25629;-73
2024/03/16 02:34:37;;;;;;;41.28;22.67;;;;;;;4.91;87.97;99933.25;1746865;82;25584;-73
2024/03/16 02:37:05;;;;;;;42.45;23.85;;;;;;;4.91;87.66;99938.06;1717455;82;25635;-73
2024/03/16 02:39:32;;;;;;;42.43;22.95;;;;;;;4.92;87.57;99932.97;1746939;81;27332;-74
2024/03/16 02:42:00;;;;;;;43.33;23.85;;;;;;;4.90;87.73;99935.11;1746849;82;25632;-73
2024/03/16 02:44:26;;;;;;;41.05;23.12;;;;;;;4.89;88.01;99933.53;1746936;81;25610;-74
2024/03/16 02:46:55;;;;;;;44.93;23.73;;;;;;;4.88;87.83;99933.80;1746919;81;25604;-74
2024/03/16 02:49:21;;;;;;;41.80;23.50;;;;;;;4.86;87.64;99937.55;1746874;82;25393;-74
2024/03/16 02:51:50;;;;;;;47.35;24.37;;;;;;;4.86;88.09;99940.78;1747042;82;27406;-74
2024/03/16 02:54:17;;;;;;;;;;;;;;;4.82;87.72;99932.50;1749516;82;25618;-74
2024/03/16 02:56:44;;;;;;;42.00;23.65;;;;;;;4.81;87.68;99933.56;1711040;83;25462;-74
2024/03/16 02:59:13;;;;;;;47.62;23.77;;;;;;;4.78;87.87;99931.98;1697830;84;25639;-73
2024/03/16 03:01:39;;;;;;;41.37;23.62;;;;;;;4.75;87.78;99926.66;1709008;83;25629;-73
2024/03/16 03:04:07;;;;;;;42.98;24.90;;;;;;;4.74;87.93;99925.59;1698648;83;27316;-73
2024/03/16 03:06:35;;;;;;;46.80;24.32;;;;;;;4.72;87.82;99924.53;1711173;83;25414;-73
2024/03/16 03:09:18;;;;;;;42.73;24.30;;;;;;;4.69;87.97;99922.41;1697239;83;25634;-73
2024/03/16 03:11:44;;;;;;;40.88;23.12;;;;;;;4.66;87.94;99927.77;1697691;84;26230;-73
2024/03/16 03:14:15;;;;;;;44.00;24.87;;;;;;;4.61;88.57;99923.78;1711118;83;25475;-73
2024/03/16 03:16:39;;;;;;;40.33;22.82;;;;;;;4.58;88.19;99917.67;1699391;83;27406;-73
2024/03/16 03:19:06;;;;;;;42.15;23.42;;;;;;;4.56;88.19;99914.98;1709482;83;25587;-74
2024/03/16 03:21:32;;;;;;;45.08;25.02;;;;;;;4.54;88.47;99914.47;1710585;83;25483;-74
2024/03/16 03:23:59;;;;;;;40.43;23.95;;;;;;;4.51;88.63;99917.16;1695989;84;25715;-74
2024/03/16 03:26:29;;;;;;;41.45;23.12;;;;;;;4.48;88.63;99911.03;1698813;84;25622;-74
2024/03/16 03:28:53;;;;;;;44.53;23.70;;;;;;;4.45;88.74;99918.28;1698159;83;27346;-74
2024/03/16 03:31:20;;;;;;;43.28;23.12;;;;;;;4.43;89.18;99914.53;1694689;83;26170;-74
2024/03/16 03:33:46;;;;;;;42.45;23.85;;;;;;;4.41;89.62;99913.20;1681285;84;25447;-74
2024/03/16 03:36:13;;;;;;;47.93;24.80;;;;;;;4.40;89.69;99911.61;1677874;84;26162;-75
2024/03/16 03:38:39;;;;;;;43.83;24.95;;;;;;;4.37;89.40;99918.31;1677891;85;25432;-75
2024/03/16 03:41:05;;;;;;;44.95;24.92;;;;;;;4.36;89.30;99913.22;1675941;85;27400;-74
2024/03/16 03:43:33;;;;;;;47.10;25.08;;;;;;;4.35;89.56;99914.32;1680632;84;25406;-75
2024/03/16 03:45:59;;;;;;;47.40;25.85;;;;;;;4.33;89.28;99912.46;1679255;85;25160;-75
2024/03/16 03:48:35;;;;;;;45.73;24.10;;;;;;;4.30;89.59;99912.46;1680221;84;25692;-75
2024/03/16 03:50:57;;;;;;;52.03;25.95;;;;;;;4.29;89.63;99918.88;1678772;84;25619;-75
2024/03/16 03:53:27;;;;;;;48.05;25.43;;;;;;;4.27;89.82;99916.51;1677775;84;27375;-75
2024/03/16 03:55:54;;;;;;;45.78;25.23;;;;;;;4.26;89.93;99926.16;1679691;85;25564;-75
2024/03/16 03:58:22;;;;;;;45.73;25.30;;;;;;;4.24;89.95;99918.39;1679340;84;25612;-75
2024/03/16 04:00:49;;;;;;;47.70;24.92;;;;;;;4.23;89.90;99917.33;1677420;85;25679;-75
2024/03/16 04:03:17;;;;;;;46.95;26.42;;;;;;;4.20;90.16;99920.00;1678404;84;25577;-75
2024/03/16 04:05:43;;;;;;;49.27;26.07;;;;;;;4.19;90.34;99918.94;1679014;84;27338;-75
2024/03/16 04:08:11;;;;;;;47.67;25.17;;;;;;;4.16;90.38;99918.96;1679483;84;25632;-74
2024/03/16 04:10:38;;;;;;;47.40;25.70;;;;;;;4.15;90.52;99923.25;1676276;85;25626;-74
2024/03/16 04:13:05;;;;;;;47.00;26.07;;;;;;;4.11;90.76;99920.33;1680390;84;25616;-74
2024/03/16 04:15:31;;;;;;;47.55;25.43;;;;;;;4.10;91.02;99919.53;1677709;85;25583;-74
2024/03/16 04:17:58;;;;;;;48.68;26.37;;;;;;;4.09;90.70;99923.27;1679269;85;27431;-74
2024/03/16 04:20:24;;;;;;;46.53;25.85;;;;;;;4.07;90.92;99923.27;1679019;84;25739;-75
2024/03/16 04:22:50;;;;;;;48.42;25.50;;;;;;;4.07;91.03;99917.92;1678927;84;25405;-74
2024/03/16 04:25:16;;;;;;;51.48;26.33;;;;;;;4.05;90.73;99917.40;1679400;84;26280;-74
2024/03/16 04:27:44;;;;;;;48.15;26.40;;;;;;;4.04;91.32;99921.17;1678054;84;25408;-74
2024/03/16 04:30:12;;;;;;;45.63;26.23;;;;;;;4.01;91.43;99917.15;1681647;85;27334;-74
2024/03/16 04:32:39;;;;;;;49.58;27.00;;;;;;;4.03;91.62;99918.21;1713150;82;25683;-74
2024/03/16 04:35:07;;;;;;;48.20;26.52;;;;;;;4.04;91.77;99923.30;1740344;81;25425;-73
2024/03/16 04:37:33;;;;;;;53.75;27.70;;;;;;;4.04;91.95;99923.30;1739425;82;25654;-73
2024/03/16 04:40:00;;;;;;;48.33;27.85;;;;;;;4.04;92.09;99922.50;1739468;82;25475;-74
2024/03/16 04:42:26;;;;;;;46.18;26.52;;;;;;;4.05;92.26;99916.06;1739598;82;27305;-74
2024/03/16 04:44:52;;;;;;;52.45;27.32;;;;;;;4.06;92.24;99917.13;1739655;81;25666;-74
2024/03/16 04:47:19;;;;;;;46.33;25.90;;;;;;;4.05;92.13;99918.22;1739709;82;25526;-74
2024/03/16 04:49:45;;;;;;;47.43;25.88;;;;;;;4.07;92.50;99918.73;1739658;82;26157;-74
2024/03/16 04:52:13;;;;;;;53.98;27.35;;;;;;;4.08;92.56;99911.50;1739745;81;25365;-74
2024/03/16 04:54:41;;;;;;;49.35;28.00;;;;;;;4.10;92.85;99914.18;1739752;82;27316;-74
2024/03/16 04:57:07;;;;;;;49.80;27.67;;;;;;;4.10;93.05;99913.36;1739653;81;25679;-74
2024/03/16 04:59:33;;;;;;;45.25;26.57;;;;;;;4.14;92.85;99913.61;1739717;82;25577;-73
2024/03/16 05:01:59;;;;;;;53.33;27.48;;;;;;;4.14;92.89;99913.09;1739674;81;25610;-73
2024/03/16 05:04:26;;;;;;;48.78;26.75;;;;;;;4.15;93.14;99902.63;1739758;81;25637;-74
2024/03/16 05:06:53;;;;;;;48.05;27.20;;;;;;;4.17;93.35;99903.69;1739701;82;27318;-73
2024/03/16 05:09:19;;;;;;;47.90;25.62;;;;;;;4.18;93.74;99903.97;1739587;82;25625;-73
2024/03/16 05:11:46;;;;;;;49.65;26.97;;;;;;;4.20;93.31;99917.33;1739729;81;25638;-73
2024/03/16 05:14:12;;;;;;;54.40;27.90;;;;;;;4.24;93.53;99910.36;1739694;82;25613;-73
2024/03/16 05:16:42;;;;;;;51.37;27.48;;;;;;;4.27;93.54;99915.69;1739740;81;25621;-74
2024/03/16 05:19:08;;;;;;;52.53;27.73;;;;;;;4.30;93.63;99919.16;1739725;82;28017;-74
2024/03/16 05:21:35;;;;;;;53.17;28.47;;;;;;;4.34;93.85;99916.17;1739632;82;25388;-74
2024/03/16 05:24:02;;;;;;;49.03;26.80;;;;;;;4.39;93.83;99920.71;1739712;82;25594;-74
2024/03/16 05:26:31;;;;;;;52.48;27.42;;;;;;;4.42;93.70;99919.62;1739689;82;25598;-74
2024/03/16 05:28:58;;;;;;;53.75;29.60;;;;;;;4.45;93.74;99920.95;1739863;81;32872;-73
2024/03/16 05:31:25;;;;;;;49.18;27.17;;;;;;;4.48;93.98;99921.20;1739693;81;27382;-73
2024/03/16 05:33:52;;;;;;;48.05;28.00;;;;;;;4.52;93.78;99921.44;1739021;82;25359;-72
2024/03/16 05:36:18;;;;;;;53.45;27.50;;;;;;;4.56;93.83;99924.36;1739323;82;25420;-72
2024/03/16 05:38:49;;;;;;;54.35;28.87;;;;;;;4.59;93.67;99931.30;1745538;82;25611;-73
2024/03/16 05:41:14;;;;;;;55.12;30.23;;;;;;;4.63;93.76;99924.84;1746241;82;25368;-73
2024/03/16 05:43:43;;;;;;;52.25;27.85;;;;;;;4.65;93.71;99930.20;1746582;82;27402;-73
2024/03/16 05:46:11;;;;;;;49.75;26.95;;;;;;;4.67;93.57;99926.70;1746433;81;25601;-73
2024/03/16 05:48:38;;;;;;;57.53;30.60;;;;;;;4.70;93.46;99928.55;1746806;81;25649;-73
2024/03/16 05:51:07;;;;;;;49.42;28.07;;;;;;;4.73;93.48;99930.69;1746637;81;26185;-74
2024/03/16 05:53:33;;;;;;;56.95;29.63;;;;;;;4.76;93.41;99926.11;1746719;82;31316;-74
2024/03/16 05:55:59;;;;;;;52.73;28.83;;;;;;;4.80;93.48;99924.47;1746457;81;27891;-74
2024/03/16 05:58:25;;;;;;;50.52;26.87;;;;;;;4.83;93.43;99927.93;1746566;82;25543;-74
2024/03/16 06:00:52;;;;;;;54.90;29.00;;;;;;;4.87;93.38;99927.66;1746492;82;25443;-74
2024/03/16 06:03:18;;;;;;;53.58;29.10;;;;;;;4.90;93.31;99925.73;1746065;81;25606;-73
2024/03/16 06:05:45;;;;;;;57.30;30.40;;;;;;;4.96;93.30;99930.53;1746363;82;25154;-73
2024/03/16 06:08:13;;;;;;;52.78;28.98;;;;;;;5.00;93.21;99930.22;1746521;81;27318;-73
2024/03/16 06:10:40;;;;;;;56.33;29.37;;;;;;;5.03;93.05;99916.26;1746456;81;25785;-74
2024/03/16 06:13:07;;;;;;;57.25;30.00;;;;;;;5.08;93.05;99924.81;1746561;82;25577;-74
2024/03/16 06:15:36;;;;;;;56.63;28.60;;;;;;;5.09;92.92;99921.03;1745736;82;25668;-74
2024/03/16 06:18:03;;;;;;;52.23;29.40;;;;;;;5.12;92.87;99922.61;1746859;82;25159;-73
2024/03/16 06:20:29;;;;;;;55.67;31.30;;;;;;;5.16;92.84;99926.34;1746649;82;27321;-74
2024/03/16 06:22:55;;;;;;;52.70;28.83;;;;;;;5.20;92.72;99923.89;1746612;81;25580;-76
2024/03/16 06:25:24;;;;;;;58.55;30.40;;;;;;;5.23;92.65;99929.48;1746877;82;25463;-76
2024/03/16 06:27:52;;;;;;;58.42;30.70;;;;;;;5.28;92.60;99930.52;1746944;82;26205;-76
2024/03/16 06:30:27;;;;;;;56.95;28.98;;;;;;;5.31;92.61;99929.44;1746956;81;25535;-78
2024/03/16 06:33:11;;;;;;;53.68;29.77;;;;;;;5.34;92.51;99926.16;1748699;81;28116;-76
2024/03/16 06:35:41;;;;;;;52.50;29.75;;;;;;;5.42;92.67;99932.27;1753015;81;25923;-75
2024/03/16 06:38:06;;;;;;;51.20;30.27;;;;;;;5.47;92.48;99931.42;1753150;81;25557;-75
2024/03/16 06:40:33;;;;;;;52.33;28.60;;;;;;;5.55;92.97;99933.48;1753667;81;25664;-75
2024/03/16 06:42:59;;;;;;;52.27;27.73;;;;;;;5.65;92.93;99939.82;1753411;81;25558;-75
2024/03/16 06:45:25;;;;;;;53.68;30.45;;;;;;;5.75;92.98;99941.05;1753596;81;27320;-76
2024/03/16 06:47:53;;;;;;;57.88;31.45;;;;;;;5.84;92.75;99943.39;1753821;81;25739;-74
2024/03/16 06:50:21;;;;;;;56.90;29.70;;;;;;;5.91;92.37;99938.47;1754784;81;25205;-75
2024/03/16 06:52:47;;;;;;;56.20;29.27;;;;;;;6.01;92.20;99943.48;1754949;81;25615;-75
2024/03/16 06:55:17;;;;;;;58.65;29.37;;;;;;;6.08;92.20;99942.06;1755885;81;25157;-75
2024/03/16 06:57:42;;;;;;;50.10;28.35;;;;;;;6.17;91.92;99952.41;1754920;81;27314;-76
2024/03/16 07:00:11;;;;;;;50.12;28.67;;;;;;;6.24;91.69;99949.38;1752877;81;25686;-75
2024/03/16 07:02:39;;;;;;;55.67;28.65;;;;;;;6.31;91.55;99956.53;1753009;81;25624;-75
2024/03/16 07:05:07;;;;;;;49.15;28.15;;;;;;;6.38;91.25;99956.17;1752827;81;25603;-74
2024/03/16 07:07:34;;;;;;;47.75;29.02;;;;;;;6.47;90.97;99963.05;1752842;81;25376;-75
2024/03/16 07:10:00;;;;;;;54.38;29.02;;;;;;;6.51;90.70;99962.73;1752759;81;27381;-74
2024/03/16 07:12:26;;;;;;;52.78;28.40;;;;;;;6.54;90.29;99964.84;1752726;81;25625;-73
2024/03/16 07:14:52;;;;;;;51.95;28.50;;;;;;;6.56;89.99;99970.73;1752787;81;25535;-74
2024/03/16 07:17:18;;;;;;;54.18;29.27;;;;;;;6.58;89.90;99965.06;1752760;81;25618;-75
2024/03/16 07:19:44;;;;;;;53.73;30.25;;;;;;;6.62;89.90;99969.55;1752831;81;25587;-75
2024/03/16 07:22:12;;;;;;;50.92;28.17;;;;;;;6.64;90.04;99970.08;1752742;81;27939;-75
2024/03/16 07:24:39;;;;;;;54.00;28.67;;;;;;;6.69;89.86;99971.36;1752723;81;25597;-74
2024/03/16 07:27:07;;;;;;;53.58;28.52;;;;;;;6.72;89.77;99979.37;1752792;81;25452;-75
2024/03/16 07:29:33;;;;;;;44.83;27.35;;;;;;;6.76;89.62;99978.23;1752771;81;25663;-76
2024/03/16 07:31:59;;;;;;;50.05;28.05;;;;;;;6.77;89.34;99979.84;1752788;81;25331;-75
2024/03/16 07:34:25;;;;;;;56.75;29.35;;;;;;;6.80;89.32;99984.65;1741563;81;27423;-74
2024/03/16 07:36:51;;;;;;;52.93;29.72;;;;;;;6.81;89.20;99982.20;1738888;82;25567;-75
2024/03/16 07:39:18;;;;;;;54.42;28.70;;;;;;;6.82;89.18;99991.88;1739022;82;25551;-74
2024/03/16 07:41:44;;;;;;;48.45;27.27;;;;;;;6.81;89.02;99988.92;1738985;82;25583;-76
2024/03/16 07:44:11;;;;;;;49.40;29.50;;;;;;;6.80;88.82;99997.53;1739034;82;25457;-75
2024/03/16 07:46:38;;;;;;;49.55;28.38;;;;;;;6.78;88.61;99998.93;1739012;82;26980;-75
2024/03/16 07:49:04;;;;;;;49.67;28.83;;;;;;;6.73;88.54;99996.55;1739156;82;25628;-75
2024/03/16 07:51:30;;;;;;;55.17;29.70;;;;;;;6.73;88.60;99995.77;1739467;82;25647;-75
2024/03/16 07:53:58;;;;;;;48.78;28.73;;;;;;;6.70;88.58;99993.09;1739580;82;25633;-75
2024/03/16 07:56:25;;;;;;;56.65;29.40;;;;;;;6.71;88.70;99987.98;1740867;82;25318;-75
2024/03/16 07:58:51;;;;;;;49.73;29.63;;;;;;;6.70;88.82;99998.47;1742201;82;27345;-76
2024/03/16 08:01:19;;;;;;;51.28;28.57;;;;;;;6.72;88.83;99996.84;1742183;82;25239;-73
2024/03/16 08:03:46;;;;;;;52.75;29.60;;;;;;;6.73;88.87;100002.48;1741306;82;25189;-75
2024/03/16 08:06:12;;;;;;;56.83;31.05;;;;;;;6.70;88.91;100001.16;1741282;82;25614;-75
2024/03/16 08:08:38;;;;;;;58.65;30.17;;;;;;;6.69;89.07;99998.23;1740564;82;25178;-76
2024/03/16 08:11:04;;;;;;;52.45;29.63;;;;;;;6.66;89.36;100004.19;1738308;82;27273;-76
2024/03/16 08:13:31;;;;;;;57.33;30.57;;;;;;;6.63;89.74;99997.25;1738656;82;25943;-76
2024/03/16 08:15:59;;;;;;;51.30;30.68;;;;;;;6.62;90.15;100000.45;1738588;82;25665;-75
2024/03/16 08:18:25;;;;;;;58.78;30.75;;;;;;;6.61;90.81;100004.25;1738897;82;25723;-76
2024/03/16 08:21:00;;;;;;;56.55;30.60;;;;;;;6.59;91.10;100005.09;1738874;82;25675;-76
2024/03/16 08:23:28;;;;;;;58.92;31.00;;;;;;;6.59;91.54;99999.72;1739087;82;27995;-75
2024/03/16 08:25:56;;;;;;;55.90;30.70;;;;;;;6.59;91.87;99999.72;1738971;82;25412;-74
2024/03/16 08:28:22;;;;;;;57.33;31.27;;;;;;;6.59;92.36;99997.55;1739054;82;25537;-75
2024/03/16 08:30:48;;;;;;;53.70;32.93;;;;;;;6.61;92.77;99992.71;1738985;82;25706;-74
2024/03/16 08:33:16;;;;;;;58.33;32.85;;;;;;;6.63;93.27;99994.00;1718019;82;25925;-74
2024/03/16 08:35:42;;;;;;;66.00;33.35;;;;;;;6.63;93.36;99999.94;1737264;81;27915;-74
2024/03/16 08:38:08;;;;;;;58.90;34.05;;;;;;;6.65;93.94;100002.57;1733890;81;25582;-75
2024/03/16 08:40:34;;;;;;;58.63;33.50;;;;;;;6.66;94.09;99998.80;1733967;82;25448;-73
2024/03/16 08:43:03;;;;;;;62.35;34.03;;;;;;;6.68;94.23;99998.52;1733915;81;25722;-73
2024/03/16 08:45:30;;;;;;;65.45;34.73;;;;;;;6.66;94.62;99989.95;1734117;82;25583;-72
2024/03/16 08:47:59;;;;;;;63.65;36.00;;;;;;;6.79;95.81;99995.14;1733976;81;28048;-72
2024/03/16 08:50:35;;;;;;;64.97;35.08;;;;;;;6.87;96.21;99988.55;1734003;81;25456;-73
2024/03/16 08:53:01;;;;;;;64.35;35.10;;;;;;;7.00;96.55;99984.34;1723971;83;25659;-71
2024/03/16 08:55:28;;;;;;;66.72;35.98;;;;;;;7.28;99.03;99982.54;1723646;82;25691;-72
2024/03/16 08:57:54;;;;;;;68.37;36.17;;;;;;;7.67;99.59;99987.28;1723712;82;25594;-73
2024/03/16 09:00:22;;;;;;;65.08;36.35;;;;;;;7.95;99.40;99978.70;1723728;83;27318;-73
2024/03/16 09:02:50;;;;;;;60.48;35.43;;;;;;;8.12;98.20;99982.67;1723800;82;25651;-73
2024/03/16 09:05:16;;;;;;;57.25;34.23;;;;;;;8.25;97.41;99983.78;1729098;82;25498;-72
2024/03/16 09:07:45;;;;;;;60.83;35.43;;;;;;;8.35;97.20;99976.83;1729039;83;25651;-72
2024/03/16 09:10:11;;;;;;;61.18;34.45;;;;;;;8.48;97.11;99973.88;1729180;83;25666;-71
2024/03/16 09:12:38;;;;;;;61.60;35.70;;;;;;;8.61;97.24;99985.19;1728963;83;27785;-71
2024/03/16 09:15:11;;;;;;;58.63;34.20;;;;;;;8.76;97.52;99984.06;1728913;83;25419;-73
2024/03/16 09:17:37;;;;;;;63.35;36.13;;;;;;;9.03;97.53;99988.57;1729132;83;25655;-72
2024/03/16 09:20:11;;;;;;;59.30;35.63;;;;;;;9.24;96.40;99981.33;1729056;83;25772;-73
2024/03/16 09:22:37;;;;;;;58.40;32.25;;;;;;;9.31;95.82;99983.86;1728317;82;25636;-73
2024/03/16 09:25:05;;;;;;;58.38;34.30;;;;;;;9.38;95.20;99991.52;1729124;83;27252;-73
2024/03/16 09:27:36;;;;;;;59.83;34.37;;;;;;;9.49;96.05;99986.09;1729246;83;25765;-73
2024/03/16 09:30:07;;;;;;;57.05;32.65;;;;;;;9.53;95.07;99982.22;1728017;83;25462;-73
2024/03/16 09:32:36;;;;;;;59.03;34.00;;;;;;;9.60;95.28;99987.97;1729138;83;25611;-72
2024/03/16 09:35:10;;;;;;;57.40;34.70;;;;;;;9.64;94.41;99989.53;1730814;82;25608;-73
2024/03/16 09:37:36;;;;;;;53.78;32.45;;;;;;;9.63;94.47;99985.22;1731202;82;27191;-73
2024/03/16 09:40:13;;;;;;;56.08;34.13;;;;;;;9.75;95.16;99996.23;1731163;82;25449;-73
2024/03/16 09:42:40;;;;;;;58.28;33.98;;;;;;;9.84;94.62;99994.39;1734493;81;25415;-74
2024/03/16 09:45:19;;;;;;;53.98;32.95;;;;;;;9.97;95.20;99994.03;1746955;81;26223;-73
2024/03/16 09:47:48;;;;;;;56.75;33.38;;;;;;;10.20;95.49;99987.19;1747160;81;32741;-74
2024/03/16 09:50:16;;;;;;;54.50;33.45;;;;;;;10.52;96.05;99985.23;1746965;81;27420;-74
2024/03/16 09:52:48;;;;;;;56.23;33.30;;;;;;;10.87;97.07;99978.52;1746966;81;25560;-72
2024/03/16 09:55:15;;;;;;;55.38;32.78;;;;;;;11.21;96.36;99985.25;1747082;82;25546;-72
2024/03/16 09:57:43;;;;;;;51.55;31.75;;;;;;;11.39;93.84;99987.38;1747017;81;25627;-72
2024/03/16 10:00:14;;;;;;;49.20;31.42;;;;;;;11.41;92.19;99991.13;1717681;82;25615;-72
2024/03/16 10:02:41;;;;;;;54.18;31.93;;;;;;;11.33;90.58;99994.64;1747010;82;28075;-73
2024/03/16 10:05:17;;;;;;;54.08;31.97;;;;;;;11.22;90.43;99996.89;1746954;82;25378;-73
2024/03/16 10:07:45;;;;;;;48.40;30.62;;;;;;;11.08;90.25;100003.02;1746016;82;25613;-72
2024/03/16 10:10:17;;;;;;;63.75;32.90;;;;;;;10.94;90.37;99996.41;1746993;82;25675;-69
2024/03/16 10:12:44;;;;;;;56.13;33.38;;;;;;;10.83;90.97;99997.30;1747041;81;25626;-69
2024/03/16 10:15:15;;;;;;;58.55;33.83;;;;;;;10.71;91.40;99989.81;1746969;81;26839;-68
2024/03/16 10:17:43;;;;;;;56.85;33.38;;;;;;;10.57;91.85;99997.25;1746910;82;25388;-66
2024/03/16 10:20:18;;;;;;;64.27;34.73;;;;;;;10.43;92.56;99992.77;1746976;81;25465;-66
2024/03/16 10:22:54;;;;;;;61.15;35.33;;;;;;;10.33;93.05;99986.30;1746945;81;25723;-65
2024/03/16 10:25:22;;;;;;;59.98;35.63;;;;;;;10.20;93.32;99985.30;1745860;82;25632;-65
2024/03/16 10:27:48;;;;;;;61.53;37.58;;;;;;;10.05;93.21;99996.54;1747026;82;27894;-65
2024/03/16 10:30:17;;;;;;;62.43;36.90;;;;;;;9.88;93.35;99994.56;1746843;82;25670;-67
2024/03/16 10:32:49;;;;;;;65.32;37.85;;;;;;;9.70;93.56;99989.09;1747024;82;25546;-67
2024/03/16 10:35:26;;;;;;;59.93;35.60;;;;;;;9.59;94.57;99990.45;1742260;82;25792;-66
2024/03/16 10:37:48;;;;;;;65.42;38.13;;;;;;;9.48;94.97;99979.66;1738731;82;25616;-66
2024/03/16 10:40:19;;;;;;;64.35;36.58;;;;;;;9.46;96.07;99979.95;1739537;81;27317;-65
2024/03/16 10:42:53;;;;;;;69.72;38.35;;;;;;;9.41;95.95;99973.90;1739470;82;25230;-65
2024/03/16 10:45:24;;;;;;;66.37;38.63;;;;;;;9.37;96.49;99972.94;1739612;82;25545;-65
2024/03/16 10:47:54;;;;;;;68.37;38.23;;;;;;;9.36;97.37;99973.47;1739476;82;25697;-65
2024/03/16 10:50:27;;;;;;;66.15;39.90;;;;;;;9.30;97.06;99970.67;1739506;81;25537;-64
2024/03/16 10:52:57;;;;;;;63.70;38.65;;;;;;;9.26;97.39;99975.89;1739514;81;28369;-64
2024/03/16 10:55:27;;;;;;;68.52;38.30;;;;;;;9.23;97.58;99972.98;1739433;81;25775;-64
2024/03/16 10:57:55;;;;;;;72.12;40.33;;;;;;;9.23;98.19;99979.20;1720874;82;25557;-64
2024/03/16 11:00:34;;;;;;;65.75;39.40;;;;;;;9.25;99.06;99978.33;1739485;81;26645;-64
2024/03/16 11:03:07;;;;;;;67.50;40.48;;;;;;;9.36;100.00;99974.81;1739094;82;25571;-64
2024/03/16 11:05:45;;;;;;;72.87;41.15;;;;;;;9.59;100.00;99977.51;1738666;82;27210;-64
2024/03/16 11:08:21;;;;;;;64.75;40.20;;;;;;;9.76;100.00;99972.75;1738612;82;25629;-63
2024/03/16 11:10:48;;;;;;;69.22;41.50;;;;;;;9.93;100.00;99974.70;1739772;82;25574;-63
2024/03/16 11:13:26;;;;;;;69.75;40.88;;;;;;;10.08;100.00;99971.60;1739713;82;26480;-64
2024/03/16 11:15:57;;;;;;;79.82;43.30;;;;;;;10.32;100.00;99968.51;1739606;81;25440;-61
2024/03/16 11:18:28;;;;;;;74.58;44.93;;;;;;;10.64;100.00;99969.98;1739652;82;27317;-67
2024/03/16 11:20:58;;;;;;;92.20;47.90;;;;;;;11.30;100.00;99966.28;1739462;82;25668;-59
2024/03/16 11:23:30;;;;;;;73.92;45.05;;;;;;;11.77;100.00;99972.30;1739525;81;25587;-60
2024/03/16 11:26:24;;;;;;;68.37;41.68;;;;;;;12.32;100.00;99966.56;1739484;81;25764;-58